<?xml version="1.0" encoding="UTF-8" standalone="no" ?>
<gpx xmlns="http://www.topografix.com/GPX/1/1" xmlns:xsi="http://www.w3.org/2001/XMLSchema-instance" xsi:schemaLocation="http://www.topografix.com/GPX/1/1 http://www.topografix.com/GPX/1/1/gpx.xsd" version="1.1" creator="VisuGPX - https://www.visugpx.com">
  <metadata>
    <name>Col de Bellefond, Par l\'Aup du Seuil</name>
    <desc><![CDATA[Col de Bellefond, Par l\'Aup du Seuil]]></desc>
  </metadata>
  <trk>
    <name><![CDATA[2013-02-27 08:03]]></name>
    <desc><![CDATA[<h1>OruxMaps</h1><br /><hr align="center" width="480" style="height: 2px; width: 517px"/><h2>Nom: 2013-02-27 08:03</h2><br /><p>Temps de départ: 02/27/2013 08:06</p><p>Temps d'arrivée: 02/27/2013 13:50</p><p>Distance: 12,1 km (05:44)</p><p>Temps déplacement: -310:-59</p><p>Vitesse moyenne: 2,1 km/h</p><p>Vitesse moyenne: 0 km/h</p><p>Vitess Max.: 45,9 km/h</p><p>Altitude minimale: 1115 m</p><p>Altitude maximale: 2025 m</p><p>Vitesse d'élévation: 382,1 m/h</p><p>Vitesse de descente: -498,8 m/h</p><p>Gain Altitude: 1219 m</p><p>Perte Altitude: -1113 m</p><p>Temps d'élévation: 03:11</p><p>Temps de descente: 02:14</p><hr align="center" width="480" style="height: 2px; width: 517px"/>]]></desc>
    <trkseg>
      <trkpt lat="45.35599" lon="5.91904">
        <ele>1115.7</ele>
        <time>2013-02-27T07:06:08Z</time>
      </trkpt>
      <trkpt lat="45.3559" lon="5.91882">
        <ele>1119.0847</ele>
        <time>2013-02-27T07:12:49Z</time>
      </trkpt>
      <trkpt lat="45.35602" lon="5.91863">
        <ele>1118.004</ele>
        <time>2013-02-27T07:13:38Z</time>
      </trkpt>
      <trkpt lat="45.3562" lon="5.91854">
        <ele>1121.21</ele>
        <time>2013-02-27T07:13:56Z</time>
      </trkpt>
      <trkpt lat="45.35618" lon="5.91828">
        <ele>1127.9656</ele>
        <time>2013-02-27T07:20:14Z</time>
      </trkpt>
      <trkpt lat="45.35611" lon="5.91803">
        <ele>1127.6033</ele>
        <time>2013-02-27T07:20:35Z</time>
      </trkpt>
      <trkpt lat="45.35604" lon="5.9178">
        <ele>1128.5182</ele>
        <time>2013-02-27T07:20:57Z</time>
      </trkpt>
      <trkpt lat="45.35591" lon="5.91761">
        <ele>1129.4644</ele>
        <time>2013-02-27T07:21:24Z</time>
      </trkpt>
      <trkpt lat="45.35583" lon="5.91738">
        <ele>1131.823</ele>
        <time>2013-02-27T07:21:58Z</time>
      </trkpt>
      <trkpt lat="45.35579" lon="5.91712">
        <ele>1136.8632</ele>
        <time>2013-02-27T07:22:27Z</time>
      </trkpt>
      <trkpt lat="45.35593" lon="5.91695">
        <ele>1141.3622</ele>
        <time>2013-02-27T07:22:54Z</time>
      </trkpt>
      <trkpt lat="45.35603" lon="5.91673">
        <ele>1142.7168</ele>
        <time>2013-02-27T07:23:16Z</time>
      </trkpt>
      <trkpt lat="45.35613" lon="5.91652">
        <ele>1146.0579</ele>
        <time>2013-02-27T07:23:41Z</time>
      </trkpt>
      <trkpt lat="45.35624" lon="5.9163">
        <ele>1152.9915</ele>
        <time>2013-02-27T07:24:41Z</time>
      </trkpt>
      <trkpt lat="45.35633" lon="5.91607">
        <ele>1155.8192</ele>
        <time>2013-02-27T07:25:03Z</time>
      </trkpt>
      <trkpt lat="45.35644" lon="5.91587">
        <ele>1157.1631</ele>
        <time>2013-02-27T07:25:23Z</time>
      </trkpt>
      <trkpt lat="45.35657" lon="5.91569">
        <ele>1159.1803</ele>
        <time>2013-02-27T07:25:43Z</time>
      </trkpt>
      <trkpt lat="45.35669" lon="5.91549">
        <ele>1161.6418</ele>
        <time>2013-02-27T07:26:08Z</time>
      </trkpt>
      <trkpt lat="45.35681" lon="5.91528">
        <ele>1167.2373</ele>
        <time>2013-02-27T07:26:31Z</time>
      </trkpt>
      <trkpt lat="45.35692" lon="5.91508">
        <ele>1171.6611</ele>
        <time>2013-02-27T07:26:59Z</time>
      </trkpt>
      <trkpt lat="45.357" lon="5.91484">
        <ele>1175.8762</ele>
        <time>2013-02-27T07:27:22Z</time>
      </trkpt>
      <trkpt lat="45.35703" lon="5.91459">
        <ele>1180.2194</ele>
        <time>2013-02-27T07:27:46Z</time>
      </trkpt>
      <trkpt lat="45.3571" lon="5.91435">
        <ele>1183.983</ele>
        <time>2013-02-27T07:28:09Z</time>
      </trkpt>
      <trkpt lat="45.35718" lon="5.91412">
        <ele>1188.3755</ele>
        <time>2013-02-27T07:28:36Z</time>
      </trkpt>
      <trkpt lat="45.35727" lon="5.91389">
        <ele>1193.7305</ele>
        <time>2013-02-27T07:29:00Z</time>
      </trkpt>
      <trkpt lat="45.35734" lon="5.91365">
        <ele>1197.427</ele>
        <time>2013-02-27T07:29:25Z</time>
      </trkpt>
      <trkpt lat="45.35737" lon="5.9134">
        <ele>1200.4962</ele>
        <time>2013-02-27T07:29:48Z</time>
      </trkpt>
      <trkpt lat="45.35737" lon="5.91314">
        <ele>1210.0552</ele>
        <time>2013-02-27T07:33:21Z</time>
      </trkpt>
      <trkpt lat="45.35736" lon="5.91288">
        <ele>1222.3749</ele>
        <time>2013-02-27T07:34:05Z</time>
      </trkpt>
      <trkpt lat="45.35738" lon="5.91262">
        <ele>1224.9628</ele>
        <time>2013-02-27T07:34:34Z</time>
      </trkpt>
      <trkpt lat="45.35744" lon="5.91238">
        <ele>1227.5604</ele>
        <time>2013-02-27T07:35:03Z</time>
      </trkpt>
      <trkpt lat="45.35744" lon="5.91212">
        <ele>1231.8787</ele>
        <time>2013-02-27T07:35:29Z</time>
      </trkpt>
      <trkpt lat="45.35742" lon="5.91186">
        <ele>1235.6946</ele>
        <time>2013-02-27T07:35:55Z</time>
      </trkpt>
      <trkpt lat="45.35738" lon="5.91161">
        <ele>1241.254</ele>
        <time>2013-02-27T07:36:24Z</time>
      </trkpt>
      <trkpt lat="45.35733" lon="5.91136">
        <ele>1246.4857</ele>
        <time>2013-02-27T07:36:51Z</time>
      </trkpt>
      <trkpt lat="45.35727" lon="5.91111">
        <ele>1252.7136</ele>
        <time>2013-02-27T07:37:16Z</time>
      </trkpt>
      <trkpt lat="45.3572" lon="5.91087">
        <ele>1257.9348</ele>
        <time>2013-02-27T07:37:41Z</time>
      </trkpt>
      <trkpt lat="45.35716" lon="5.91062">
        <ele>1264.1204</ele>
        <time>2013-02-27T07:38:07Z</time>
      </trkpt>
      <trkpt lat="45.35711" lon="5.91037">
        <ele>1267.7646</ele>
        <time>2013-02-27T07:38:31Z</time>
      </trkpt>
      <trkpt lat="45.35707" lon="5.91012">
        <ele>1274.4675</ele>
        <time>2013-02-27T07:38:58Z</time>
      </trkpt>
      <trkpt lat="45.35694" lon="5.90994">
        <ele>1292.7118</ele>
        <time>2013-02-27T07:41:15Z</time>
      </trkpt>
      <trkpt lat="45.35696" lon="5.90968">
        <ele>1294.0576</ele>
        <time>2013-02-27T07:41:42Z</time>
      </trkpt>
      <trkpt lat="45.35701" lon="5.90943">
        <ele>1296.7618</ele>
        <time>2013-02-27T07:42:08Z</time>
      </trkpt>
      <trkpt lat="45.35707" lon="5.90918">
        <ele>1304.8678</ele>
        <time>2013-02-27T07:42:52Z</time>
      </trkpt>
      <trkpt lat="45.35715" lon="5.90895">
        <ele>1309.5483</ele>
        <time>2013-02-27T07:43:30Z</time>
      </trkpt>
      <trkpt lat="45.35733" lon="5.90892">
        <ele>1317.4629</ele>
        <time>2013-02-27T07:44:05Z</time>
      </trkpt>
      <trkpt lat="45.35743" lon="5.90914">
        <ele>1318.9825</ele>
        <time>2013-02-27T07:44:28Z</time>
      </trkpt>
      <trkpt lat="45.35762" lon="5.90913">
        <ele>1321.6111</ele>
        <time>2013-02-27T07:44:59Z</time>
      </trkpt>
      <trkpt lat="45.35761" lon="5.90886">
        <ele>1324.0323</ele>
        <time>2013-02-27T07:45:38Z</time>
      </trkpt>
      <trkpt lat="45.35779" lon="5.90886">
        <ele>1337.691</ele>
        <time>2013-02-27T07:46:37Z</time>
      </trkpt>
      <trkpt lat="45.35768" lon="5.90865">
        <ele>1339.0808</ele>
        <time>2013-02-27T07:47:04Z</time>
      </trkpt>
      <trkpt lat="45.35754" lon="5.90848">
        <ele>1344.144</ele>
        <time>2013-02-27T07:47:37Z</time>
      </trkpt>
      <trkpt lat="45.35742" lon="5.90828">
        <ele>1347.5404</ele>
        <time>2013-02-27T07:48:12Z</time>
      </trkpt>
      <trkpt lat="45.35725" lon="5.90816">
        <ele>1350.166</ele>
        <time>2013-02-27T07:48:42Z</time>
      </trkpt>
      <trkpt lat="45.35711" lon="5.90798">
        <ele>1351.7638</ele>
        <time>2013-02-27T07:49:00Z</time>
      </trkpt>
      <trkpt lat="45.35698" lon="5.90781">
        <ele>1352.8093</ele>
        <time>2013-02-27T07:49:18Z</time>
      </trkpt>
      <trkpt lat="45.35685" lon="5.90762">
        <ele>1353.3119</ele>
        <time>2013-02-27T07:49:35Z</time>
      </trkpt>
      <trkpt lat="45.35672" lon="5.90742">
        <ele>1357.3966</ele>
        <time>2013-02-27T07:49:52Z</time>
      </trkpt>
      <trkpt lat="45.35657" lon="5.90727">
        <ele>1358.5929</ele>
        <time>2013-02-27T07:50:09Z</time>
      </trkpt>
      <trkpt lat="45.3564" lon="5.90715">
        <ele>1358.1982</ele>
        <time>2013-02-27T07:50:27Z</time>
      </trkpt>
      <trkpt lat="45.35625" lon="5.907">
        <ele>1359.0724</ele>
        <time>2013-02-27T07:50:44Z</time>
      </trkpt>
      <trkpt lat="45.35611" lon="5.90684">
        <ele>1360.4644</ele>
        <time>2013-02-27T07:51:02Z</time>
      </trkpt>
      <trkpt lat="45.35597" lon="5.90666">
        <ele>1363.0352</ele>
        <time>2013-02-27T07:51:18Z</time>
      </trkpt>
      <trkpt lat="45.35583" lon="5.90648">
        <ele>1364.6641</ele>
        <time>2013-02-27T07:51:36Z</time>
      </trkpt>
      <trkpt lat="45.3557" lon="5.9063">
        <ele>1366.5476</ele>
        <time>2013-02-27T07:51:59Z</time>
      </trkpt>
      <trkpt lat="45.35556" lon="5.90612">
        <ele>1368.9879</ele>
        <time>2013-02-27T07:52:16Z</time>
      </trkpt>
      <trkpt lat="45.35542" lon="5.90596">
        <ele>1368.671</ele>
        <time>2013-02-27T07:52:32Z</time>
      </trkpt>
      <trkpt lat="45.35524" lon="5.90588">
        <ele>1369.5825</ele>
        <time>2013-02-27T07:52:46Z</time>
      </trkpt>
      <trkpt lat="45.35506" lon="5.90582">
        <ele>1370.4393</ele>
        <time>2013-02-27T07:53:03Z</time>
      </trkpt>
      <trkpt lat="45.35488" lon="5.90575">
        <ele>1370.5616</ele>
        <time>2013-02-27T07:53:19Z</time>
      </trkpt>
      <trkpt lat="45.3547" lon="5.90571">
        <ele>1373.1871</ele>
        <time>2013-02-27T07:53:33Z</time>
      </trkpt>
      <trkpt lat="45.35451" lon="5.90565">
        <ele>1374.21</ele>
        <time>2013-02-27T07:53:49Z</time>
      </trkpt>
      <trkpt lat="45.35433" lon="5.90562">
        <ele>1375.0847</ele>
        <time>2013-02-27T07:54:06Z</time>
      </trkpt>
      <trkpt lat="45.35414" lon="5.9056">
        <ele>1377.826</ele>
        <time>2013-02-27T07:54:22Z</time>
      </trkpt>
      <trkpt lat="45.35396" lon="5.90557">
        <ele>1379.7917</ele>
        <time>2013-02-27T07:54:38Z</time>
      </trkpt>
      <trkpt lat="45.35378" lon="5.90556">
        <ele>1381.2317</ele>
        <time>2013-02-27T07:54:54Z</time>
      </trkpt>
      <trkpt lat="45.3536" lon="5.90556">
        <ele>1381.3988</ele>
        <time>2013-02-27T07:55:11Z</time>
      </trkpt>
      <trkpt lat="45.35342" lon="5.90553">
        <ele>1383.6118</ele>
        <time>2013-02-27T07:55:34Z</time>
      </trkpt>
      <trkpt lat="45.35323" lon="5.90548">
        <ele>1383.7802</ele>
        <time>2013-02-27T07:55:53Z</time>
      </trkpt>
      <trkpt lat="45.35313" lon="5.90526">
        <ele>1384.3673</ele>
        <time>2013-02-27T07:56:15Z</time>
      </trkpt>
      <trkpt lat="45.35308" lon="5.90501">
        <ele>1385.892</ele>
        <time>2013-02-27T07:56:32Z</time>
      </trkpt>
      <trkpt lat="45.3531" lon="5.9053">
        <ele>1386.4407</ele>
        <time>2013-02-27T07:57:46Z</time>
      </trkpt>
      <trkpt lat="45.35322" lon="5.90551">
        <ele>1386.1915</ele>
        <time>2013-02-27T07:57:52Z</time>
      </trkpt>
      <trkpt lat="45.35338" lon="5.90563">
        <ele>1385.7932</ele>
        <time>2013-02-27T07:58:00Z</time>
      </trkpt>
      <trkpt lat="45.35358" lon="5.90569">
        <ele>1386.2548</ele>
        <time>2013-02-27T07:58:09Z</time>
      </trkpt>
      <trkpt lat="45.35378" lon="5.9056">
        <ele>1385.2404</ele>
        <time>2013-02-27T07:58:17Z</time>
      </trkpt>
      <trkpt lat="45.35397" lon="5.9056">
        <ele>1383.9675</ele>
        <time>2013-02-27T07:58:31Z</time>
      </trkpt>
      <trkpt lat="45.35416" lon="5.90562">
        <ele>1384.3215</ele>
        <time>2013-02-27T07:58:39Z</time>
      </trkpt>
      <trkpt lat="45.35434" lon="5.90569">
        <ele>1383.3206</ele>
        <time>2013-02-27T07:58:51Z</time>
      </trkpt>
      <trkpt lat="45.35452" lon="5.90573">
        <ele>1382.5746</ele>
        <time>2013-02-27T07:59:01Z</time>
      </trkpt>
      <trkpt lat="45.35471" lon="5.90578">
        <ele>1382.2435</ele>
        <time>2013-02-27T07:59:11Z</time>
      </trkpt>
      <trkpt lat="45.35489" lon="5.90585">
        <ele>1380.9149</ele>
        <time>2013-02-27T07:59:21Z</time>
      </trkpt>
      <trkpt lat="45.35507" lon="5.90587">
        <ele>1379.915</ele>
        <time>2013-02-27T07:59:32Z</time>
      </trkpt>
      <trkpt lat="45.35525" lon="5.9059">
        <ele>1379.0093</ele>
        <time>2013-02-27T07:59:42Z</time>
      </trkpt>
      <trkpt lat="45.35542" lon="5.906">
        <ele>1377.4113</ele>
        <time>2013-02-27T07:59:50Z</time>
      </trkpt>
      <trkpt lat="45.35556" lon="5.90619">
        <ele>1375.9287</ele>
        <time>2013-02-27T08:00:09Z</time>
      </trkpt>
      <trkpt lat="45.35569" lon="5.90638">
        <ele>1374.6675</ele>
        <time>2013-02-27T08:00:16Z</time>
      </trkpt>
      <trkpt lat="45.35584" lon="5.90657">
        <ele>1373.8165</ele>
        <time>2013-02-27T08:00:25Z</time>
      </trkpt>
      <trkpt lat="45.35597" lon="5.90676">
        <ele>1371.5829</ele>
        <time>2013-02-27T08:00:34Z</time>
      </trkpt>
      <trkpt lat="45.35611" lon="5.90694">
        <ele>1370.0726</ele>
        <time>2013-02-27T08:00:43Z</time>
      </trkpt>
      <trkpt lat="45.35626" lon="5.90709">
        <ele>1368.5688</ele>
        <time>2013-02-27T08:01:19Z</time>
      </trkpt>
      <trkpt lat="45.35633" lon="5.90685">
        <ele>1363.6824</ele>
        <time>2013-02-27T08:02:43Z</time>
      </trkpt>
      <trkpt lat="45.35651" lon="5.90685">
        <ele>1365.195</ele>
        <time>2013-02-27T08:03:21Z</time>
      </trkpt>
      <trkpt lat="45.35668" lon="5.90676">
        <ele>1368.225</ele>
        <time>2013-02-27T08:03:47Z</time>
      </trkpt>
      <trkpt lat="45.35685" lon="5.9067">
        <ele>1370.2234</ele>
        <time>2013-02-27T08:04:29Z</time>
      </trkpt>
      <trkpt lat="45.35695" lon="5.90648">
        <ele>1379.0942</ele>
        <time>2013-02-27T08:05:54Z</time>
      </trkpt>
      <trkpt lat="45.35686" lon="5.90625">
        <ele>1399.1271</ele>
        <time>2013-02-27T08:06:48Z</time>
      </trkpt>
      <trkpt lat="45.35691" lon="5.906">
        <ele>1407.3538</ele>
        <time>2013-02-27T08:07:48Z</time>
      </trkpt>
      <trkpt lat="45.35684" lon="5.90576">
        <ele>1421.8109</ele>
        <time>2013-02-27T08:09:22Z</time>
      </trkpt>
      <trkpt lat="45.35674" lon="5.90554">
        <ele>1425.5157</ele>
        <time>2013-02-27T08:09:50Z</time>
      </trkpt>
      <trkpt lat="45.35668" lon="5.90529">
        <ele>1426.4696</ele>
        <time>2013-02-27T08:10:16Z</time>
      </trkpt>
      <trkpt lat="45.35659" lon="5.90507">
        <ele>1435.1505</ele>
        <time>2013-02-27T08:10:51Z</time>
      </trkpt>
      <trkpt lat="45.35652" lon="5.90483">
        <ele>1437.7089</ele>
        <time>2013-02-27T08:11:17Z</time>
      </trkpt>
      <trkpt lat="45.35648" lon="5.90458">
        <ele>1441.7246</ele>
        <time>2013-02-27T08:11:45Z</time>
      </trkpt>
      <trkpt lat="45.35637" lon="5.90436">
        <ele>1448.4023</ele>
        <time>2013-02-27T08:12:08Z</time>
      </trkpt>
      <trkpt lat="45.35626" lon="5.90415">
        <ele>1452.4973</ele>
        <time>2013-02-27T08:12:30Z</time>
      </trkpt>
      <trkpt lat="45.35612" lon="5.90399">
        <ele>1455.1666</ele>
        <time>2013-02-27T08:12:50Z</time>
      </trkpt>
      <trkpt lat="45.35598" lon="5.90382">
        <ele>1460.7723</ele>
        <time>2013-02-27T08:13:22Z</time>
      </trkpt>
      <trkpt lat="45.35582" lon="5.9037">
        <ele>1463.0253</ele>
        <time>2013-02-27T08:13:45Z</time>
      </trkpt>
      <trkpt lat="45.35566" lon="5.90357">
        <ele>1469.2587</ele>
        <time>2013-02-27T08:14:13Z</time>
      </trkpt>
      <trkpt lat="45.35549" lon="5.90348">
        <ele>1471.6166</ele>
        <time>2013-02-27T08:14:39Z</time>
      </trkpt>
      <trkpt lat="45.3553" lon="5.90345">
        <ele>1477.5026</ele>
        <time>2013-02-27T08:15:07Z</time>
      </trkpt>
      <trkpt lat="45.35531" lon="5.90319">
        <ele>1483.1583</ele>
        <time>2013-02-27T08:15:56Z</time>
      </trkpt>
      <trkpt lat="45.35526" lon="5.90295">
        <ele>1485.3325</ele>
        <time>2013-02-27T08:16:28Z</time>
      </trkpt>
      <trkpt lat="45.3551" lon="5.90282">
        <ele>1490.8401</ele>
        <time>2013-02-27T08:16:52Z</time>
      </trkpt>
      <trkpt lat="45.35512" lon="5.90256">
        <ele>1499.2065</ele>
        <time>2013-02-27T08:17:45Z</time>
      </trkpt>
      <trkpt lat="45.35511" lon="5.9023">
        <ele>1505.8022</ele>
        <time>2013-02-27T08:18:37Z</time>
      </trkpt>
      <trkpt lat="45.35495" lon="5.90216">
        <ele>1510.9534</ele>
        <time>2013-02-27T08:19:04Z</time>
      </trkpt>
      <trkpt lat="45.35488" lon="5.90193">
        <ele>1523.8574</ele>
        <time>2013-02-27T08:23:31Z</time>
      </trkpt>
      <trkpt lat="45.35497" lon="5.90169">
        <ele>1524.4481</ele>
        <time>2013-02-27T08:23:59Z</time>
      </trkpt>
      <trkpt lat="45.35513" lon="5.90159">
        <ele>1526.9525</ele>
        <time>2013-02-27T08:24:24Z</time>
      </trkpt>
      <trkpt lat="45.35531" lon="5.90163">
        <ele>1531.1901</ele>
        <time>2013-02-27T08:24:48Z</time>
      </trkpt>
      <trkpt lat="45.35549" lon="5.90167">
        <ele>1534.6646</ele>
        <time>2013-02-27T08:25:27Z</time>
      </trkpt>
      <trkpt lat="45.35568" lon="5.90167">
        <ele>1541.1246</ele>
        <time>2013-02-27T08:25:57Z</time>
      </trkpt>
      <trkpt lat="45.35586" lon="5.90163">
        <ele>1545.9652</ele>
        <time>2013-02-27T08:26:28Z</time>
      </trkpt>
      <trkpt lat="45.35604" lon="5.9016">
        <ele>1554.8115</ele>
        <time>2013-02-27T08:27:05Z</time>
      </trkpt>
      <trkpt lat="45.35623" lon="5.90157">
        <ele>1563.2135</ele>
        <time>2013-02-27T08:27:36Z</time>
      </trkpt>
      <trkpt lat="45.35642" lon="5.90156">
        <ele>1567.2587</ele>
        <time>2013-02-27T08:28:03Z</time>
      </trkpt>
      <trkpt lat="45.3566" lon="5.90157">
        <ele>1573.2571</ele>
        <time>2013-02-27T08:28:37Z</time>
      </trkpt>
      <trkpt lat="45.35679" lon="5.90156">
        <ele>1583.3442</ele>
        <time>2013-02-27T08:29:14Z</time>
      </trkpt>
      <trkpt lat="45.35674" lon="5.9013">
        <ele>1584.5134</ele>
        <time>2013-02-27T08:29:49Z</time>
      </trkpt>
      <trkpt lat="45.35664" lon="5.90109">
        <ele>1591.3221</ele>
        <time>2013-02-27T08:30:24Z</time>
      </trkpt>
      <trkpt lat="45.35653" lon="5.90088">
        <ele>1597.0107</ele>
        <time>2013-02-27T08:30:58Z</time>
      </trkpt>
      <trkpt lat="45.35638" lon="5.90074">
        <ele>1605.6237</ele>
        <time>2013-02-27T08:31:28Z</time>
      </trkpt>
      <trkpt lat="45.35628" lon="5.90052">
        <ele>1609.5106</ele>
        <time>2013-02-27T08:31:52Z</time>
      </trkpt>
      <trkpt lat="45.35623" lon="5.90027">
        <ele>1616.3903</ele>
        <time>2013-02-27T08:32:22Z</time>
      </trkpt>
      <trkpt lat="45.35617" lon="5.90002">
        <ele>1619.7205</ele>
        <time>2013-02-27T08:32:48Z</time>
      </trkpt>
      <trkpt lat="45.35617" lon="5.89976">
        <ele>1626.919</ele>
        <time>2013-02-27T08:33:22Z</time>
      </trkpt>
      <trkpt lat="45.35624" lon="5.89952">
        <ele>1630.7592</ele>
        <time>2013-02-27T08:33:56Z</time>
      </trkpt>
      <trkpt lat="45.35636" lon="5.89932">
        <ele>1633.7904</ele>
        <time>2013-02-27T08:34:42Z</time>
      </trkpt>
      <trkpt lat="45.35644" lon="5.89909">
        <ele>1639.2216</ele>
        <time>2013-02-27T08:35:14Z</time>
      </trkpt>
      <trkpt lat="45.35641" lon="5.89883">
        <ele>1645.3396</ele>
        <time>2013-02-27T08:35:40Z</time>
      </trkpt>
      <trkpt lat="45.35633" lon="5.89859">
        <ele>1650.5323</ele>
        <time>2013-02-27T08:36:13Z</time>
      </trkpt>
      <trkpt lat="45.35623" lon="5.89838">
        <ele>1660.9098</ele>
        <time>2013-02-27T08:36:55Z</time>
      </trkpt>
      <trkpt lat="45.35641" lon="5.89842">
        <ele>1657.5225</ele>
        <time>2013-02-27T08:37:30Z</time>
      </trkpt>
      <trkpt lat="45.35637" lon="5.89816">
        <ele>1660.9843</ele>
        <time>2013-02-27T08:38:27Z</time>
      </trkpt>
      <trkpt lat="45.35626" lon="5.89796">
        <ele>1675.914</ele>
        <time>2013-02-27T08:39:19Z</time>
      </trkpt>
      <trkpt lat="45.35622" lon="5.8977">
        <ele>1683.081</ele>
        <time>2013-02-27T08:39:53Z</time>
      </trkpt>
      <trkpt lat="45.35618" lon="5.89744">
        <ele>1687.1018</ele>
        <time>2013-02-27T08:40:34Z</time>
      </trkpt>
      <trkpt lat="45.3561" lon="5.89721">
        <ele>1693.0583</ele>
        <time>2013-02-27T08:41:31Z</time>
      </trkpt>
      <trkpt lat="45.35629" lon="5.89716">
        <ele>1692.829</ele>
        <time>2013-02-27T08:42:46Z</time>
      </trkpt>
      <trkpt lat="45.35616" lon="5.89699">
        <ele>1702.886</ele>
        <time>2013-02-27T08:43:48Z</time>
      </trkpt>
      <trkpt lat="45.35618" lon="5.89672">
        <ele>1709.591</ele>
        <time>2013-02-27T08:44:25Z</time>
      </trkpt>
      <trkpt lat="45.35616" lon="5.89647">
        <ele>1719.5175</ele>
        <time>2013-02-27T08:45:10Z</time>
      </trkpt>
      <trkpt lat="45.35634" lon="5.89654">
        <ele>1727.921</ele>
        <time>2013-02-27T08:46:50Z</time>
      </trkpt>
      <trkpt lat="45.35652" lon="5.89653">
        <ele>1728.7384</ele>
        <time>2013-02-27T08:47:33Z</time>
      </trkpt>
      <trkpt lat="45.3566" lon="5.8963">
        <ele>1729.5215</ele>
        <time>2013-02-27T08:50:53Z</time>
      </trkpt>
      <trkpt lat="45.35652" lon="5.89604">
        <ele>1750.3451</ele>
        <time>2013-02-27T08:51:58Z</time>
      </trkpt>
      <trkpt lat="45.3567" lon="5.89596">
        <ele>1742.363</ele>
        <time>2013-02-27T08:52:32Z</time>
      </trkpt>
      <trkpt lat="45.35673" lon="5.89571">
        <ele>1743.0923</ele>
        <time>2013-02-27T08:53:30Z</time>
      </trkpt>
      <trkpt lat="45.35667" lon="5.89546">
        <ele>1764.4795</ele>
        <time>2013-02-27T08:54:35Z</time>
      </trkpt>
      <trkpt lat="45.35685" lon="5.8954">
        <ele>1773.3931</ele>
        <time>2013-02-27T08:55:54Z</time>
      </trkpt>
      <trkpt lat="45.357" lon="5.89554">
        <ele>1781.7389</ele>
        <time>2013-02-27T08:56:32Z</time>
      </trkpt>
      <trkpt lat="45.35688" lon="5.89534">
        <ele>1802.1677</ele>
        <time>2013-02-27T08:57:51Z</time>
      </trkpt>
      <trkpt lat="45.35706" lon="5.89539">
        <ele>1804.7764</ele>
        <time>2013-02-27T08:58:32Z</time>
      </trkpt>
      <trkpt lat="45.35716" lon="5.8956">
        <ele>1816.9685</ele>
        <time>2013-02-27T08:59:00Z</time>
      </trkpt>
      <trkpt lat="45.35729" lon="5.89579">
        <ele>1839.2062</ele>
        <time>2013-02-27T09:01:07Z</time>
      </trkpt>
      <trkpt lat="45.3574" lon="5.896">
        <ele>1845.5999</ele>
        <time>2013-02-27T09:01:37Z</time>
      </trkpt>
      <trkpt lat="45.35746" lon="5.89625">
        <ele>1847.4156</ele>
        <time>2013-02-27T09:01:59Z</time>
      </trkpt>
      <trkpt lat="45.3575" lon="5.89651">
        <ele>1847.5923</ele>
        <time>2013-02-27T09:02:21Z</time>
      </trkpt>
      <trkpt lat="45.35752" lon="5.89676">
        <ele>1849.4526</ele>
        <time>2013-02-27T09:02:44Z</time>
      </trkpt>
      <trkpt lat="45.35751" lon="5.89703">
        <ele>1851.6777</ele>
        <time>2013-02-27T09:03:05Z</time>
      </trkpt>
      <trkpt lat="45.35747" lon="5.89728">
        <ele>1854.7523</ele>
        <time>2013-02-27T09:03:33Z</time>
      </trkpt>
      <trkpt lat="45.35737" lon="5.8975">
        <ele>1861.8262</ele>
        <time>2013-02-27T09:04:01Z</time>
      </trkpt>
      <trkpt lat="45.35742" lon="5.89775">
        <ele>1864.6182</ele>
        <time>2013-02-27T09:04:28Z</time>
      </trkpt>
      <trkpt lat="45.35756" lon="5.89792">
        <ele>1867.206</ele>
        <time>2013-02-27T09:04:57Z</time>
      </trkpt>
      <trkpt lat="45.35771" lon="5.89806">
        <ele>1867.3279</ele>
        <time>2013-02-27T09:05:27Z</time>
      </trkpt>
      <trkpt lat="45.35787" lon="5.8979">
        <ele>1864.9249</ele>
        <time>2013-02-27T09:06:59Z</time>
      </trkpt>
      <trkpt lat="45.3579" lon="5.89764">
        <ele>1865.1421</ele>
        <time>2013-02-27T09:07:13Z</time>
      </trkpt>
      <trkpt lat="45.35806" lon="5.89749">
        <ele>1861.8679</ele>
        <time>2013-02-27T09:07:53Z</time>
      </trkpt>
      <trkpt lat="45.35824" lon="5.89749">
        <ele>1861.124</ele>
        <time>2013-02-27T09:08:24Z</time>
      </trkpt>
      <trkpt lat="45.35812" lon="5.8973">
        <ele>1863.8379</ele>
        <time>2013-02-27T09:09:39Z</time>
      </trkpt>
      <trkpt lat="45.35811" lon="5.89704">
        <ele>1871.7021</ele>
        <time>2013-02-27T09:11:24Z</time>
      </trkpt>
      <trkpt lat="45.3583" lon="5.89709">
        <ele>1881.1646</ele>
        <time>2013-02-27T09:12:34Z</time>
      </trkpt>
      <trkpt lat="45.35842" lon="5.89728">
        <ele>1883.903</ele>
        <time>2013-02-27T09:12:56Z</time>
      </trkpt>
      <trkpt lat="45.35826" lon="5.89706">
        <ele>1886.8695</ele>
        <time>2013-02-27T09:33:01Z</time>
      </trkpt>
      <trkpt lat="45.35811" lon="5.89686">
        <ele>1886.2012</ele>
        <time>2013-02-27T09:33:06Z</time>
      </trkpt>
      <trkpt lat="45.35804" lon="5.8966">
        <ele>1884.964</ele>
        <time>2013-02-27T09:33:18Z</time>
      </trkpt>
      <trkpt lat="45.358" lon="5.89634">
        <ele>1884.022</ele>
        <time>2013-02-27T09:33:44Z</time>
      </trkpt>
      <trkpt lat="45.358" lon="5.89607">
        <ele>1883.185</ele>
        <time>2013-02-27T09:33:49Z</time>
      </trkpt>
      <trkpt lat="45.35813" lon="5.89586">
        <ele>1881.4154</ele>
        <time>2013-02-27T09:33:54Z</time>
      </trkpt>
      <trkpt lat="45.35826" lon="5.89565">
        <ele>1878.6449</ele>
        <time>2013-02-27T09:33:59Z</time>
      </trkpt>
      <trkpt lat="45.35841" lon="5.89544">
        <ele>1875.5356</ele>
        <time>2013-02-27T09:34:03Z</time>
      </trkpt>
      <trkpt lat="45.35858" lon="5.89521">
        <ele>1871.6078</ele>
        <time>2013-02-27T09:34:07Z</time>
      </trkpt>
      <trkpt lat="45.35867" lon="5.89495">
        <ele>1865.0962</ele>
        <time>2013-02-27T09:34:11Z</time>
      </trkpt>
      <trkpt lat="45.35879" lon="5.89473">
        <ele>1860.389</ele>
        <time>2013-02-27T09:34:14Z</time>
      </trkpt>
      <trkpt lat="45.35895" lon="5.89454">
        <ele>1855.6063</ele>
        <time>2013-02-27T09:34:17Z</time>
      </trkpt>
      <trkpt lat="45.35911" lon="5.89436">
        <ele>1850.412</ele>
        <time>2013-02-27T09:34:20Z</time>
      </trkpt>
      <trkpt lat="45.35924" lon="5.89411">
        <ele>1841.2339</ele>
        <time>2013-02-27T09:34:24Z</time>
      </trkpt>
      <trkpt lat="45.35936" lon="5.89386">
        <ele>1829.6068</ele>
        <time>2013-02-27T09:34:28Z</time>
      </trkpt>
      <trkpt lat="45.35949" lon="5.89362">
        <ele>1817.835</ele>
        <time>2013-02-27T09:34:32Z</time>
      </trkpt>
      <trkpt lat="45.35962" lon="5.89337">
        <ele>1805.4985</ele>
        <time>2013-02-27T09:34:36Z</time>
      </trkpt>
      <trkpt lat="45.35975" lon="5.89311">
        <ele>1793.148</ele>
        <time>2013-02-27T09:34:40Z</time>
      </trkpt>
      <trkpt lat="45.35982" lon="5.89282">
        <ele>1780.1843</ele>
        <time>2013-02-27T09:34:44Z</time>
      </trkpt>
      <trkpt lat="45.35973" lon="5.8926">
        <ele>1758.5853</ele>
        <time>2013-02-27T09:35:10Z</time>
      </trkpt>
      <trkpt lat="45.35973" lon="5.89233">
        <ele>1753.9292</ele>
        <time>2013-02-27T09:35:30Z</time>
      </trkpt>
      <trkpt lat="45.35985" lon="5.89212">
        <ele>1752.7701</ele>
        <time>2013-02-27T09:35:34Z</time>
      </trkpt>
      <trkpt lat="45.35998" lon="5.89187">
        <ele>1751.1011</ele>
        <time>2013-02-27T09:35:38Z</time>
      </trkpt>
      <trkpt lat="45.36002" lon="5.89161">
        <ele>1748.7958</ele>
        <time>2013-02-27T09:35:41Z</time>
      </trkpt>
      <trkpt lat="45.35999" lon="5.89133">
        <ele>1744.8545</ele>
        <time>2013-02-27T09:35:44Z</time>
      </trkpt>
      <trkpt lat="45.36001" lon="5.891">
        <ele>1739.918</ele>
        <time>2013-02-27T09:35:48Z</time>
      </trkpt>
      <trkpt lat="45.36005" lon="5.89068">
        <ele>1735.733</ele>
        <time>2013-02-27T09:35:52Z</time>
      </trkpt>
      <trkpt lat="45.36011" lon="5.89043">
        <ele>1732.6093</ele>
        <time>2013-02-27T09:35:55Z</time>
      </trkpt>
      <trkpt lat="45.36008" lon="5.89014">
        <ele>1728.4404</ele>
        <time>2013-02-27T09:35:59Z</time>
      </trkpt>
      <trkpt lat="45.36002" lon="5.8899">
        <ele>1717.7325</ele>
        <time>2013-02-27T09:36:29Z</time>
      </trkpt>
      <trkpt lat="45.35991" lon="5.88969">
        <ele>1715.6567</ele>
        <time>2013-02-27T09:36:47Z</time>
      </trkpt>
      <trkpt lat="45.3598" lon="5.88949">
        <ele>1714.8268</ele>
        <time>2013-02-27T09:36:56Z</time>
      </trkpt>
      <trkpt lat="45.35968" lon="5.88926">
        <ele>1713.3494</ele>
        <time>2013-02-27T09:37:03Z</time>
      </trkpt>
      <trkpt lat="45.35956" lon="5.88904">
        <ele>1712.0072</ele>
        <time>2013-02-27T09:37:09Z</time>
      </trkpt>
      <trkpt lat="45.35944" lon="5.88881">
        <ele>1711.1631</ele>
        <time>2013-02-27T09:37:16Z</time>
      </trkpt>
      <trkpt lat="45.35935" lon="5.88859">
        <ele>1708.6844</ele>
        <time>2013-02-27T09:44:04Z</time>
      </trkpt>
      <trkpt lat="45.35927" lon="5.88835">
        <ele>1709.86</ele>
        <time>2013-02-27T09:45:48Z</time>
      </trkpt>
      <trkpt lat="45.3592" lon="5.88811">
        <ele>1712.3538</ele>
        <time>2013-02-27T09:46:16Z</time>
      </trkpt>
      <trkpt lat="45.3591" lon="5.88788">
        <ele>1714.0621</ele>
        <time>2013-02-27T09:46:38Z</time>
      </trkpt>
      <trkpt lat="45.35902" lon="5.88765">
        <ele>1717.6115</ele>
        <time>2013-02-27T09:46:58Z</time>
      </trkpt>
      <trkpt lat="45.3589" lon="5.88745">
        <ele>1717.8468</ele>
        <time>2013-02-27T09:47:20Z</time>
      </trkpt>
      <trkpt lat="45.35875" lon="5.8873">
        <ele>1720.7006</ele>
        <time>2013-02-27T09:47:39Z</time>
      </trkpt>
      <trkpt lat="45.35859" lon="5.88715">
        <ele>1722.9027</ele>
        <time>2013-02-27T09:48:02Z</time>
      </trkpt>
      <trkpt lat="45.35844" lon="5.88699">
        <ele>1724.5424</ele>
        <time>2013-02-27T09:48:21Z</time>
      </trkpt>
      <trkpt lat="45.35828" lon="5.88685">
        <ele>1725.1575</ele>
        <time>2013-02-27T09:48:42Z</time>
      </trkpt>
      <trkpt lat="45.35812" lon="5.88671">
        <ele>1725.7963</ele>
        <time>2013-02-27T09:49:00Z</time>
      </trkpt>
      <trkpt lat="45.35797" lon="5.88654">
        <ele>1726.5125</ele>
        <time>2013-02-27T09:49:31Z</time>
      </trkpt>
      <trkpt lat="45.35782" lon="5.88638">
        <ele>1727.1814</ele>
        <time>2013-02-27T09:49:48Z</time>
      </trkpt>
      <trkpt lat="45.35767" lon="5.88621">
        <ele>1727.1151</ele>
        <time>2013-02-27T09:50:04Z</time>
      </trkpt>
      <trkpt lat="45.35752" lon="5.88606">
        <ele>1726.8927</ele>
        <time>2013-02-27T09:50:20Z</time>
      </trkpt>
      <trkpt lat="45.35736" lon="5.88594">
        <ele>1729.5021</ele>
        <time>2013-02-27T09:52:27Z</time>
      </trkpt>
      <trkpt lat="45.35723" lon="5.88577">
        <ele>1729.894</ele>
        <time>2013-02-27T09:52:45Z</time>
      </trkpt>
      <trkpt lat="45.35708" lon="5.88561">
        <ele>1729.059</ele>
        <time>2013-02-27T09:52:58Z</time>
      </trkpt>
      <trkpt lat="45.35693" lon="5.88545">
        <ele>1727.1641</ele>
        <time>2013-02-27T09:53:12Z</time>
      </trkpt>
      <trkpt lat="45.3568" lon="5.88526">
        <ele>1726.2235</ele>
        <time>2013-02-27T09:53:27Z</time>
      </trkpt>
      <trkpt lat="45.35666" lon="5.8851">
        <ele>1726.822</ele>
        <time>2013-02-27T09:53:42Z</time>
      </trkpt>
      <trkpt lat="45.3565" lon="5.88497">
        <ele>1726.0385</ele>
        <time>2013-02-27T09:53:59Z</time>
      </trkpt>
      <trkpt lat="45.35635" lon="5.88482">
        <ele>1724.2151</ele>
        <time>2013-02-27T09:54:15Z</time>
      </trkpt>
      <trkpt lat="45.35618" lon="5.88467">
        <ele>1724.746</ele>
        <time>2013-02-27T09:54:31Z</time>
      </trkpt>
      <trkpt lat="45.35603" lon="5.88451">
        <ele>1723.4102</ele>
        <time>2013-02-27T09:54:39Z</time>
      </trkpt>
      <trkpt lat="45.3559" lon="5.88432">
        <ele>1722.098</ele>
        <time>2013-02-27T09:54:50Z</time>
      </trkpt>
      <trkpt lat="45.35575" lon="5.88417">
        <ele>1720.5723</ele>
        <time>2013-02-27T09:55:07Z</time>
      </trkpt>
      <trkpt lat="45.3556" lon="5.88404">
        <ele>1720.6381</ele>
        <time>2013-02-27T09:55:22Z</time>
      </trkpt>
      <trkpt lat="45.35545" lon="5.88388">
        <ele>1721.6035</ele>
        <time>2013-02-27T09:55:40Z</time>
      </trkpt>
      <trkpt lat="45.3553" lon="5.88372">
        <ele>1722.6932</ele>
        <time>2013-02-27T09:55:55Z</time>
      </trkpt>
      <trkpt lat="45.35514" lon="5.88357">
        <ele>1723.7756</ele>
        <time>2013-02-27T09:56:11Z</time>
      </trkpt>
      <trkpt lat="45.35501" lon="5.88339">
        <ele>1723.2482</ele>
        <time>2013-02-27T09:56:27Z</time>
      </trkpt>
      <trkpt lat="45.35488" lon="5.88321">
        <ele>1723.2354</ele>
        <time>2013-02-27T09:56:42Z</time>
      </trkpt>
      <trkpt lat="45.3547" lon="5.88317">
        <ele>1723.7114</ele>
        <time>2013-02-27T09:57:01Z</time>
      </trkpt>
      <trkpt lat="45.35452" lon="5.88307">
        <ele>1724.6915</ele>
        <time>2013-02-27T09:57:23Z</time>
      </trkpt>
      <trkpt lat="45.35436" lon="5.88295">
        <ele>1727.2953</ele>
        <time>2013-02-27T09:57:44Z</time>
      </trkpt>
      <trkpt lat="45.35424" lon="5.88275">
        <ele>1732.3121</ele>
        <time>2013-02-27T09:58:03Z</time>
      </trkpt>
      <trkpt lat="45.35413" lon="5.88255">
        <ele>1741.0894</ele>
        <time>2013-02-27T09:58:21Z</time>
      </trkpt>
      <trkpt lat="45.354" lon="5.88235">
        <ele>1743.6996</ele>
        <time>2013-02-27T09:58:41Z</time>
      </trkpt>
      <trkpt lat="45.35387" lon="5.88216">
        <ele>1744.0952</ele>
        <time>2013-02-27T09:58:58Z</time>
      </trkpt>
      <trkpt lat="45.35371" lon="5.88205">
        <ele>1743.5233</ele>
        <time>2013-02-27T09:59:09Z</time>
      </trkpt>
      <trkpt lat="45.35355" lon="5.88192">
        <ele>1743.5331</ele>
        <time>2013-02-27T09:59:26Z</time>
      </trkpt>
      <trkpt lat="45.35338" lon="5.8818">
        <ele>1745.8798</ele>
        <time>2013-02-27T09:59:43Z</time>
      </trkpt>
      <trkpt lat="45.35322" lon="5.88168">
        <ele>1747.5558</ele>
        <time>2013-02-27T10:00:00Z</time>
      </trkpt>
      <trkpt lat="45.35305" lon="5.88156">
        <ele>1748.0586</ele>
        <time>2013-02-27T10:00:15Z</time>
      </trkpt>
      <trkpt lat="45.35286" lon="5.88151">
        <ele>1749.1112</ele>
        <time>2013-02-27T10:00:29Z</time>
      </trkpt>
      <trkpt lat="45.35268" lon="5.88149">
        <ele>1750.7968</ele>
        <time>2013-02-27T10:00:47Z</time>
      </trkpt>
      <trkpt lat="45.3525" lon="5.88144">
        <ele>1752.875</ele>
        <time>2013-02-27T10:01:04Z</time>
      </trkpt>
      <trkpt lat="45.35234" lon="5.88131">
        <ele>1754.9307</ele>
        <time>2013-02-27T10:01:24Z</time>
      </trkpt>
      <trkpt lat="45.35219" lon="5.88146">
        <ele>1758.3849</ele>
        <time>2013-02-27T10:02:51Z</time>
      </trkpt>
      <trkpt lat="45.35201" lon="5.88152">
        <ele>1760.2172</ele>
        <time>2013-02-27T10:03:08Z</time>
      </trkpt>
      <trkpt lat="45.35183" lon="5.88158">
        <ele>1762.3063</ele>
        <time>2013-02-27T10:04:17Z</time>
      </trkpt>
      <trkpt lat="45.35166" lon="5.88165">
        <ele>1764.5496</ele>
        <time>2013-02-27T10:04:36Z</time>
      </trkpt>
      <trkpt lat="45.35147" lon="5.88159">
        <ele>1766.5209</ele>
        <time>2013-02-27T10:05:11Z</time>
      </trkpt>
      <trkpt lat="45.35132" lon="5.88146">
        <ele>1766.5154</ele>
        <time>2013-02-27T10:05:30Z</time>
      </trkpt>
      <trkpt lat="45.35117" lon="5.88131">
        <ele>1765.3813</ele>
        <time>2013-02-27T10:05:52Z</time>
      </trkpt>
      <trkpt lat="45.351" lon="5.88122">
        <ele>1766.2423</ele>
        <time>2013-02-27T10:06:23Z</time>
      </trkpt>
      <trkpt lat="45.35081" lon="5.8812">
        <ele>1766.5792</ele>
        <time>2013-02-27T10:06:40Z</time>
      </trkpt>
      <trkpt lat="45.35067" lon="5.88136">
        <ele>1767.5814</ele>
        <time>2013-02-27T10:06:56Z</time>
      </trkpt>
      <trkpt lat="45.3505" lon="5.88148">
        <ele>1768.6013</ele>
        <time>2013-02-27T10:07:12Z</time>
      </trkpt>
      <trkpt lat="45.35033" lon="5.88156">
        <ele>1768.8071</ele>
        <time>2013-02-27T10:07:29Z</time>
      </trkpt>
      <trkpt lat="45.35015" lon="5.88162">
        <ele>1769.4915</ele>
        <time>2013-02-27T10:07:47Z</time>
      </trkpt>
      <trkpt lat="45.34996" lon="5.88159">
        <ele>1770.6985</ele>
        <time>2013-02-27T10:07:59Z</time>
      </trkpt>
      <trkpt lat="45.34979" lon="5.88169">
        <ele>1769.4686</ele>
        <time>2013-02-27T10:08:11Z</time>
      </trkpt>
      <trkpt lat="45.3496" lon="5.88153">
        <ele>1767.7463</ele>
        <time>2013-02-27T10:08:15Z</time>
      </trkpt>
      <trkpt lat="45.3495" lon="5.88132">
        <ele>1763.909</ele>
        <time>2013-02-27T10:08:26Z</time>
      </trkpt>
      <trkpt lat="45.34938" lon="5.88112">
        <ele>1761.2119</ele>
        <time>2013-02-27T10:08:41Z</time>
      </trkpt>
      <trkpt lat="45.34924" lon="5.88093">
        <ele>1759.9321</ele>
        <time>2013-02-27T10:08:59Z</time>
      </trkpt>
      <trkpt lat="45.34907" lon="5.8808">
        <ele>1760.195</ele>
        <time>2013-02-27T10:09:15Z</time>
      </trkpt>
      <trkpt lat="45.34891" lon="5.88068">
        <ele>1761.5237</ele>
        <time>2013-02-27T10:09:34Z</time>
      </trkpt>
      <trkpt lat="45.34875" lon="5.88055">
        <ele>1764.8159</ele>
        <time>2013-02-27T10:09:55Z</time>
      </trkpt>
      <trkpt lat="45.34858" lon="5.88045">
        <ele>1766.5938</ele>
        <time>2013-02-27T10:10:13Z</time>
      </trkpt>
      <trkpt lat="45.3484" lon="5.88038">
        <ele>1768.811</ele>
        <time>2013-02-27T10:10:32Z</time>
      </trkpt>
      <trkpt lat="45.34823" lon="5.88029">
        <ele>1770.6715</ele>
        <time>2013-02-27T10:10:51Z</time>
      </trkpt>
      <trkpt lat="45.34805" lon="5.88025">
        <ele>1772.8069</ele>
        <time>2013-02-27T10:11:10Z</time>
      </trkpt>
      <trkpt lat="45.34787" lon="5.88029">
        <ele>1775.2089</ele>
        <time>2013-02-27T10:12:17Z</time>
      </trkpt>
      <trkpt lat="45.34773" lon="5.88046">
        <ele>1780.817</ele>
        <time>2013-02-27T10:12:49Z</time>
      </trkpt>
      <trkpt lat="45.34755" lon="5.88043">
        <ele>1782.3129</ele>
        <time>2013-02-27T10:13:21Z</time>
      </trkpt>
      <trkpt lat="45.34737" lon="5.88036">
        <ele>1785.0078</ele>
        <time>2013-02-27T10:13:47Z</time>
      </trkpt>
      <trkpt lat="45.34719" lon="5.88028">
        <ele>1789.4032</ele>
        <time>2013-02-27T10:14:12Z</time>
      </trkpt>
      <trkpt lat="45.34704" lon="5.88013">
        <ele>1789.8982</ele>
        <time>2013-02-27T10:14:37Z</time>
      </trkpt>
      <trkpt lat="45.34688" lon="5.87999">
        <ele>1790.5223</ele>
        <time>2013-02-27T10:15:01Z</time>
      </trkpt>
      <trkpt lat="45.34671" lon="5.87992">
        <ele>1794.0321</ele>
        <time>2013-02-27T10:15:24Z</time>
      </trkpt>
      <trkpt lat="45.34655" lon="5.8798">
        <ele>1798.8954</ele>
        <time>2013-02-27T10:15:48Z</time>
      </trkpt>
      <trkpt lat="45.34637" lon="5.87971">
        <ele>1802.0055</ele>
        <time>2013-02-27T10:16:11Z</time>
      </trkpt>
      <trkpt lat="45.34621" lon="5.87958">
        <ele>1802.9198</ele>
        <time>2013-02-27T10:16:35Z</time>
      </trkpt>
      <trkpt lat="45.34606" lon="5.87944">
        <ele>1805.9764</ele>
        <time>2013-02-27T10:16:57Z</time>
      </trkpt>
      <trkpt lat="45.34591" lon="5.87929">
        <ele>1808.5037</ele>
        <time>2013-02-27T10:17:19Z</time>
      </trkpt>
      <trkpt lat="45.34575" lon="5.87916">
        <ele>1815.1646</ele>
        <time>2013-02-27T10:17:45Z</time>
      </trkpt>
      <trkpt lat="45.34563" lon="5.87897">
        <ele>1819.6392</ele>
        <time>2013-02-27T10:18:13Z</time>
      </trkpt>
      <trkpt lat="45.34549" lon="5.8788">
        <ele>1827.0671</ele>
        <time>2013-02-27T10:18:39Z</time>
      </trkpt>
      <trkpt lat="45.3453" lon="5.87879">
        <ele>1830.3699</ele>
        <time>2013-02-27T10:18:59Z</time>
      </trkpt>
      <trkpt lat="45.3451" lon="5.87875">
        <ele>1829.886</ele>
        <time>2013-02-27T10:19:08Z</time>
      </trkpt>
      <trkpt lat="45.34491" lon="5.87875">
        <ele>1828.8782</ele>
        <time>2013-02-27T10:19:27Z</time>
      </trkpt>
      <trkpt lat="45.34473" lon="5.87875">
        <ele>1829.4354</ele>
        <time>2013-02-27T10:19:46Z</time>
      </trkpt>
      <trkpt lat="45.34454" lon="5.87878">
        <ele>1827.6339</ele>
        <time>2013-02-27T10:20:05Z</time>
      </trkpt>
      <trkpt lat="45.34436" lon="5.87879">
        <ele>1828.4999</ele>
        <time>2013-02-27T10:20:26Z</time>
      </trkpt>
      <trkpt lat="45.34418" lon="5.8788">
        <ele>1831.084</ele>
        <time>2013-02-27T10:20:45Z</time>
      </trkpt>
      <trkpt lat="45.344" lon="5.87883">
        <ele>1834.2957</ele>
        <time>2013-02-27T10:21:03Z</time>
      </trkpt>
      <trkpt lat="45.34381" lon="5.87882">
        <ele>1838.7517</ele>
        <time>2013-02-27T10:22:23Z</time>
      </trkpt>
      <trkpt lat="45.34363" lon="5.87884">
        <ele>1840.8076</ele>
        <time>2013-02-27T10:22:43Z</time>
      </trkpt>
      <trkpt lat="45.34344" lon="5.87887">
        <ele>1844.4177</ele>
        <time>2013-02-27T10:23:11Z</time>
      </trkpt>
      <trkpt lat="45.34326" lon="5.87885">
        <ele>1845.2148</ele>
        <time>2013-02-27T10:23:37Z</time>
      </trkpt>
      <trkpt lat="45.34309" lon="5.87893">
        <ele>1852.8191</ele>
        <time>2013-02-27T10:24:12Z</time>
      </trkpt>
      <trkpt lat="45.34291" lon="5.87894">
        <ele>1863.5815</ele>
        <time>2013-02-27T10:25:01Z</time>
      </trkpt>
      <trkpt lat="45.34272" lon="5.87895">
        <ele>1877.2023</ele>
        <time>2013-02-27T10:26:02Z</time>
      </trkpt>
      <trkpt lat="45.34268" lon="5.8787">
        <ele>1882.4677</ele>
        <time>2013-02-27T10:26:22Z</time>
      </trkpt>
      <trkpt lat="45.34256" lon="5.8789">
        <ele>1889.3616</ele>
        <time>2013-02-27T10:27:00Z</time>
      </trkpt>
      <trkpt lat="45.34247" lon="5.87867">
        <ele>1895.7672</ele>
        <time>2013-02-27T10:27:37Z</time>
      </trkpt>
      <trkpt lat="45.3423" lon="5.87874">
        <ele>1903.746</ele>
        <time>2013-02-27T10:28:25Z</time>
      </trkpt>
      <trkpt lat="45.34222" lon="5.87849">
        <ele>1910.9332</ele>
        <time>2013-02-27T10:28:47Z</time>
      </trkpt>
      <trkpt lat="45.34211" lon="5.8787">
        <ele>1922.0344</ele>
        <time>2013-02-27T10:29:28Z</time>
      </trkpt>
      <trkpt lat="45.34197" lon="5.87853">
        <ele>1936.3738</ele>
        <time>2013-02-27T10:30:24Z</time>
      </trkpt>
      <trkpt lat="45.34194" lon="5.87827">
        <ele>1942.8744</ele>
        <time>2013-02-27T10:30:49Z</time>
      </trkpt>
      <trkpt lat="45.342" lon="5.87802">
        <ele>1950.6661</ele>
        <time>2013-02-27T10:31:17Z</time>
      </trkpt>
      <trkpt lat="45.34183" lon="5.87812">
        <ele>1960.7996</ele>
        <time>2013-02-27T10:36:41Z</time>
      </trkpt>
      <trkpt lat="45.34175" lon="5.87835">
        <ele>1966.9135</ele>
        <time>2013-02-27T10:37:53Z</time>
      </trkpt>
      <trkpt lat="45.34164" lon="5.87857">
        <ele>1969.7794</ele>
        <time>2013-02-27T10:38:31Z</time>
      </trkpt>
      <trkpt lat="45.34156" lon="5.8788">
        <ele>1975.9722</ele>
        <time>2013-02-27T10:39:15Z</time>
      </trkpt>
      <trkpt lat="45.34141" lon="5.87894">
        <ele>1981.3972</ele>
        <time>2013-02-27T10:39:42Z</time>
      </trkpt>
      <trkpt lat="45.34127" lon="5.87913">
        <ele>1986.5619</ele>
        <time>2013-02-27T10:40:10Z</time>
      </trkpt>
      <trkpt lat="45.34115" lon="5.87932">
        <ele>1992.5381</ele>
        <time>2013-02-27T10:40:41Z</time>
      </trkpt>
      <trkpt lat="45.34102" lon="5.87951">
        <ele>1998.7832</ele>
        <time>2013-02-27T10:41:09Z</time>
      </trkpt>
      <trkpt lat="45.34086" lon="5.87966">
        <ele>2005.5334</ele>
        <time>2013-02-27T10:41:39Z</time>
      </trkpt>
      <trkpt lat="45.34102" lon="5.8798">
        <ele>2014.424</ele>
        <time>2013-02-27T10:42:20Z</time>
      </trkpt>
      <trkpt lat="45.3412" lon="5.87986">
        <ele>2018.4514</ele>
        <time>2013-02-27T10:42:45Z</time>
      </trkpt>
      <trkpt lat="45.34131" lon="5.88006">
        <ele>2022.1718</ele>
        <time>2013-02-27T10:44:58Z</time>
      </trkpt>
      <trkpt lat="45.34147" lon="5.88019">
        <ele>2025.5433</ele>
        <time>2013-02-27T10:45:54Z</time>
      </trkpt>
      <trkpt lat="45.34155" lon="5.88042">
        <ele>2019.8906</ele>
        <time>2013-02-27T10:46:25Z</time>
      </trkpt>
      <trkpt lat="45.34166" lon="5.8802">
        <ele>2016.4847</ele>
        <time>2013-02-27T11:30:48Z</time>
      </trkpt>
      <trkpt lat="45.34185" lon="5.88011">
        <ele>2013.9237</ele>
        <time>2013-02-27T11:31:11Z</time>
      </trkpt>
      <trkpt lat="45.34203" lon="5.88006">
        <ele>2013.3287</ele>
        <time>2013-02-27T11:31:17Z</time>
      </trkpt>
      <trkpt lat="45.34221" lon="5.88015">
        <ele>2013.3601</ele>
        <time>2013-02-27T11:31:26Z</time>
      </trkpt>
      <trkpt lat="45.34242" lon="5.88011">
        <ele>2013.4519</ele>
        <time>2013-02-27T11:31:33Z</time>
      </trkpt>
      <trkpt lat="45.34261" lon="5.88018">
        <ele>2013.4501</ele>
        <time>2013-02-27T11:32:42Z</time>
      </trkpt>
      <trkpt lat="45.3428" lon="5.88026">
        <ele>2012.935</ele>
        <time>2013-02-27T11:32:48Z</time>
      </trkpt>
      <trkpt lat="45.34301" lon="5.8803">
        <ele>2012.7166</ele>
        <time>2013-02-27T11:32:52Z</time>
      </trkpt>
      <trkpt lat="45.3432" lon="5.88039">
        <ele>2012.4393</ele>
        <time>2013-02-27T11:33:38Z</time>
      </trkpt>
      <trkpt lat="45.34344" lon="5.88041">
        <ele>2012.2614</ele>
        <time>2013-02-27T11:33:42Z</time>
      </trkpt>
      <trkpt lat="45.34369" lon="5.88032">
        <ele>2012.0415</ele>
        <time>2013-02-27T11:33:45Z</time>
      </trkpt>
      <trkpt lat="45.34386" lon="5.88021">
        <ele>2011.8234</ele>
        <time>2013-02-27T11:33:47Z</time>
      </trkpt>
      <trkpt lat="45.34406" lon="5.88013">
        <ele>2011.5693</ele>
        <time>2013-02-27T11:33:49Z</time>
      </trkpt>
      <trkpt lat="45.34426" lon="5.87996">
        <ele>2011.314</ele>
        <time>2013-02-27T11:33:51Z</time>
      </trkpt>
      <trkpt lat="45.34449" lon="5.87987">
        <ele>2010.9266</ele>
        <time>2013-02-27T11:33:53Z</time>
      </trkpt>
      <trkpt lat="45.34466" lon="5.87968">
        <ele>2010.4463</ele>
        <time>2013-02-27T11:33:55Z</time>
      </trkpt>
      <trkpt lat="45.34479" lon="5.87941">
        <ele>2009.9136</ele>
        <time>2013-02-27T11:33:57Z</time>
      </trkpt>
      <trkpt lat="45.34494" lon="5.87925">
        <ele>2009.2327</ele>
        <time>2013-02-27T11:33:59Z</time>
      </trkpt>
      <trkpt lat="45.34515" lon="5.87912">
        <ele>2007.2825</ele>
        <time>2013-02-27T11:34:02Z</time>
      </trkpt>
      <trkpt lat="45.34536" lon="5.87913">
        <ele>2002.8965</ele>
        <time>2013-02-27T11:34:04Z</time>
      </trkpt>
      <trkpt lat="45.34557" lon="5.87908">
        <ele>1996.3876</ele>
        <time>2013-02-27T11:34:07Z</time>
      </trkpt>
      <trkpt lat="45.34579" lon="5.87905">
        <ele>1987.8457</ele>
        <time>2013-02-27T11:34:11Z</time>
      </trkpt>
      <trkpt lat="45.3457" lon="5.87928">
        <ele>1878.8577</ele>
        <time>2013-02-27T11:35:36Z</time>
      </trkpt>
      <trkpt lat="45.34548" lon="5.87934">
        <ele>1848.8225</ele>
        <time>2013-02-27T11:35:55Z</time>
      </trkpt>
      <trkpt lat="45.3457" lon="5.87942">
        <ele>1841.2308</ele>
        <time>2013-02-27T11:36:01Z</time>
      </trkpt>
      <trkpt lat="45.34593" lon="5.87953">
        <ele>1838.5458</ele>
        <time>2013-02-27T11:36:04Z</time>
      </trkpt>
      <trkpt lat="45.34611" lon="5.8796">
        <ele>1836.6882</ele>
        <time>2013-02-27T11:36:06Z</time>
      </trkpt>
      <trkpt lat="45.34633" lon="5.87969">
        <ele>1833.8123</ele>
        <time>2013-02-27T11:36:09Z</time>
      </trkpt>
      <trkpt lat="45.3465" lon="5.87982">
        <ele>1828.3839</ele>
        <time>2013-02-27T11:36:13Z</time>
      </trkpt>
      <trkpt lat="45.3466" lon="5.88004">
        <ele>1822.2356</ele>
        <time>2013-02-27T11:36:17Z</time>
      </trkpt>
      <trkpt lat="45.34673" lon="5.88022">
        <ele>1816.0634</ele>
        <time>2013-02-27T11:36:22Z</time>
      </trkpt>
      <trkpt lat="45.34697" lon="5.88033">
        <ele>1812.4036</ele>
        <time>2013-02-27T11:36:26Z</time>
      </trkpt>
      <trkpt lat="45.34719" lon="5.88042">
        <ele>1809.6437</ele>
        <time>2013-02-27T11:36:29Z</time>
      </trkpt>
      <trkpt lat="45.34739" lon="5.88051">
        <ele>1806.5497</ele>
        <time>2013-02-27T11:36:32Z</time>
      </trkpt>
      <trkpt lat="45.34757" lon="5.88065">
        <ele>1803.3632</ele>
        <time>2013-02-27T11:36:35Z</time>
      </trkpt>
      <trkpt lat="45.34776" lon="5.88083">
        <ele>1798.4723</ele>
        <time>2013-02-27T11:36:39Z</time>
      </trkpt>
      <trkpt lat="45.34796" lon="5.88096">
        <ele>1794.4681</ele>
        <time>2013-02-27T11:36:43Z</time>
      </trkpt>
      <trkpt lat="45.34816" lon="5.88105">
        <ele>1791.7738</ele>
        <time>2013-02-27T11:36:49Z</time>
      </trkpt>
      <trkpt lat="45.34837" lon="5.88112">
        <ele>1789.716</ele>
        <time>2013-02-27T11:36:53Z</time>
      </trkpt>
      <trkpt lat="45.34857" lon="5.88119">
        <ele>1788.184</ele>
        <time>2013-02-27T11:36:55Z</time>
      </trkpt>
      <trkpt lat="45.3488" lon="5.88126">
        <ele>1785.1901</ele>
        <time>2013-02-27T11:36:58Z</time>
      </trkpt>
      <trkpt lat="45.34899" lon="5.88131">
        <ele>1781.9099</ele>
        <time>2013-02-27T11:37:01Z</time>
      </trkpt>
      <trkpt lat="45.34917" lon="5.88136">
        <ele>1778.7886</ele>
        <time>2013-02-27T11:37:04Z</time>
      </trkpt>
      <trkpt lat="45.34939" lon="5.88148">
        <ele>1774.4233</ele>
        <time>2013-02-27T11:37:08Z</time>
      </trkpt>
      <trkpt lat="45.34957" lon="5.88152">
        <ele>1771.378</ele>
        <time>2013-02-27T11:37:12Z</time>
      </trkpt>
      <trkpt lat="45.34975" lon="5.8816">
        <ele>1764.3624</ele>
        <time>2013-02-27T11:43:36Z</time>
      </trkpt>
      <trkpt lat="45.34994" lon="5.88164">
        <ele>1764.728</ele>
        <time>2013-02-27T11:44:40Z</time>
      </trkpt>
      <trkpt lat="45.35012" lon="5.88165">
        <ele>1766.7368</ele>
        <time>2013-02-27T11:44:49Z</time>
      </trkpt>
      <trkpt lat="45.35033" lon="5.8816">
        <ele>1766.5566</ele>
        <time>2013-02-27T11:44:56Z</time>
      </trkpt>
      <trkpt lat="45.35053" lon="5.88152">
        <ele>1764.633</ele>
        <time>2013-02-27T11:45:08Z</time>
      </trkpt>
      <trkpt lat="45.3507" lon="5.88138">
        <ele>1765.0314</ele>
        <time>2013-02-27T11:45:26Z</time>
      </trkpt>
      <trkpt lat="45.35086" lon="5.88124">
        <ele>1765.4928</ele>
        <time>2013-02-27T11:45:39Z</time>
      </trkpt>
      <trkpt lat="45.35106" lon="5.88125">
        <ele>1763.628</ele>
        <time>2013-02-27T11:45:51Z</time>
      </trkpt>
      <trkpt lat="45.35123" lon="5.88137">
        <ele>1761.9352</ele>
        <time>2013-02-27T11:46:01Z</time>
      </trkpt>
      <trkpt lat="45.3514" lon="5.88153">
        <ele>1763.3011</ele>
        <time>2013-02-27T11:46:24Z</time>
      </trkpt>
      <trkpt lat="45.35159" lon="5.88164">
        <ele>1764.2067</ele>
        <time>2013-02-27T11:46:42Z</time>
      </trkpt>
      <trkpt lat="45.35178" lon="5.88164">
        <ele>1763.4434</ele>
        <time>2013-02-27T11:46:47Z</time>
      </trkpt>
      <trkpt lat="45.35196" lon="5.88151">
        <ele>1760.4993</ele>
        <time>2013-02-27T11:46:58Z</time>
      </trkpt>
      <trkpt lat="45.35215" lon="5.88151">
        <ele>1759.0034</ele>
        <time>2013-02-27T11:47:04Z</time>
      </trkpt>
      <trkpt lat="45.35231" lon="5.88137">
        <ele>1756.6344</ele>
        <time>2013-02-27T11:47:18Z</time>
      </trkpt>
      <trkpt lat="45.3525" lon="5.88144">
        <ele>1754.6786</ele>
        <time>2013-02-27T11:47:27Z</time>
      </trkpt>
      <trkpt lat="45.35269" lon="5.88157">
        <ele>1752.2847</ele>
        <time>2013-02-27T11:47:32Z</time>
      </trkpt>
      <trkpt lat="45.35285" lon="5.8817">
        <ele>1750.6279</ele>
        <time>2013-02-27T11:47:40Z</time>
      </trkpt>
      <trkpt lat="45.3529" lon="5.88195">
        <ele>1749.1761</ele>
        <time>2013-02-27T11:48:10Z</time>
      </trkpt>
      <trkpt lat="45.35286" lon="5.88222">
        <ele>1752.0812</ele>
        <time>2013-02-27T11:51:02Z</time>
      </trkpt>
      <trkpt lat="45.35283" lon="5.88248">
        <ele>1755.6644</ele>
        <time>2013-02-27T11:51:07Z</time>
      </trkpt>
      <trkpt lat="45.35291" lon="5.88274">
        <ele>1756.5624</ele>
        <time>2013-02-27T11:51:46Z</time>
      </trkpt>
      <trkpt lat="45.35302" lon="5.88299">
        <ele>1756.4263</ele>
        <time>2013-02-27T11:51:50Z</time>
      </trkpt>
      <trkpt lat="45.35313" lon="5.88323">
        <ele>1756.8999</ele>
        <time>2013-02-27T11:52:27Z</time>
      </trkpt>
      <trkpt lat="45.35327" lon="5.88344">
        <ele>1757.1879</ele>
        <time>2013-02-27T11:52:33Z</time>
      </trkpt>
      <trkpt lat="45.35341" lon="5.88367">
        <ele>1757.4498</ele>
        <time>2013-02-27T11:53:01Z</time>
      </trkpt>
      <trkpt lat="45.3535" lon="5.88392">
        <ele>1758.2379</ele>
        <time>2013-02-27T11:53:06Z</time>
      </trkpt>
      <trkpt lat="45.35353" lon="5.88418">
        <ele>1758.5804</ele>
        <time>2013-02-27T11:53:15Z</time>
      </trkpt>
      <trkpt lat="45.35356" lon="5.88443">
        <ele>1759.475</ele>
        <time>2013-02-27T11:53:53Z</time>
      </trkpt>
      <trkpt lat="45.35361" lon="5.88469">
        <ele>1762.081</ele>
        <time>2013-02-27T11:54:00Z</time>
      </trkpt>
      <trkpt lat="45.35365" lon="5.88499">
        <ele>1763.7058</ele>
        <time>2013-02-27T11:54:31Z</time>
      </trkpt>
      <trkpt lat="45.35367" lon="5.88529">
        <ele>1765.4092</ele>
        <time>2013-02-27T11:54:37Z</time>
      </trkpt>
      <trkpt lat="45.35371" lon="5.88556">
        <ele>1765.3182</ele>
        <time>2013-02-27T11:54:48Z</time>
      </trkpt>
      <trkpt lat="45.35371" lon="5.88586">
        <ele>1765.8749</ele>
        <time>2013-02-27T11:55:24Z</time>
      </trkpt>
      <trkpt lat="45.35369" lon="5.88613">
        <ele>1767.4506</ele>
        <time>2013-02-27T11:55:29Z</time>
      </trkpt>
      <trkpt lat="45.35368" lon="5.88641">
        <ele>1768.9247</ele>
        <time>2013-02-27T11:56:00Z</time>
      </trkpt>
      <trkpt lat="45.35369" lon="5.88669">
        <ele>1771.0804</ele>
        <time>2013-02-27T11:56:05Z</time>
      </trkpt>
      <trkpt lat="45.35371" lon="5.88706">
        <ele>1772.6664</ele>
        <time>2013-02-27T11:56:42Z</time>
      </trkpt>
      <trkpt lat="45.35373" lon="5.88731">
        <ele>1773.2954</ele>
        <time>2013-02-27T11:56:59Z</time>
      </trkpt>
      <trkpt lat="45.35377" lon="5.8876">
        <ele>1773.6274</ele>
        <time>2013-02-27T11:57:06Z</time>
      </trkpt>
      <trkpt lat="45.35378" lon="5.88786">
        <ele>1773.45</ele>
        <time>2013-02-27T11:57:15Z</time>
      </trkpt>
      <trkpt lat="45.35381" lon="5.88818">
        <ele>1774.5931</ele>
        <time>2013-02-27T11:57:52Z</time>
      </trkpt>
      <trkpt lat="45.35384" lon="5.88844">
        <ele>1776.0356</ele>
        <time>2013-02-27T11:58:00Z</time>
      </trkpt>
      <trkpt lat="45.35386" lon="5.88873">
        <ele>1777.8868</ele>
        <time>2013-02-27T11:58:30Z</time>
      </trkpt>
      <trkpt lat="45.35388" lon="5.88899">
        <ele>1780.0549</ele>
        <time>2013-02-27T11:58:38Z</time>
      </trkpt>
      <trkpt lat="45.35389" lon="5.88931">
        <ele>1782.5493</ele>
        <time>2013-02-27T11:59:09Z</time>
      </trkpt>
      <trkpt lat="45.3539" lon="5.88957">
        <ele>1785.3097</ele>
        <time>2013-02-27T11:59:21Z</time>
      </trkpt>
      <trkpt lat="45.35393" lon="5.88987">
        <ele>1787.0681</ele>
        <time>2013-02-27T11:59:53Z</time>
      </trkpt>
      <trkpt lat="45.35396" lon="5.89013">
        <ele>1788.0829</ele>
        <time>2013-02-27T12:00:01Z</time>
      </trkpt>
      <trkpt lat="45.35401" lon="5.89039">
        <ele>1789.1248</ele>
        <time>2013-02-27T12:00:26Z</time>
      </trkpt>
      <trkpt lat="45.35406" lon="5.89065">
        <ele>1791.4194</ele>
        <time>2013-02-27T12:00:32Z</time>
      </trkpt>
      <trkpt lat="45.35412" lon="5.89091">
        <ele>1797.8752</ele>
        <time>2013-02-27T12:01:39Z</time>
      </trkpt>
      <trkpt lat="45.3542" lon="5.89114">
        <ele>1802.2085</ele>
        <time>2013-02-27T12:01:50Z</time>
      </trkpt>
      <trkpt lat="45.35436" lon="5.89127">
        <ele>1804.2749</ele>
        <time>2013-02-27T12:02:26Z</time>
      </trkpt>
      <trkpt lat="45.35453" lon="5.89137">
        <ele>1809.4808</ele>
        <time>2013-02-27T12:02:35Z</time>
      </trkpt>
      <trkpt lat="45.35471" lon="5.89151">
        <ele>1812.9489</ele>
        <time>2013-02-27T12:03:12Z</time>
      </trkpt>
      <trkpt lat="45.35486" lon="5.89166">
        <ele>1815.2616</ele>
        <time>2013-02-27T12:03:22Z</time>
      </trkpt>
      <trkpt lat="45.35502" lon="5.89183">
        <ele>1818.5176</ele>
        <time>2013-02-27T12:04:06Z</time>
      </trkpt>
      <trkpt lat="45.35517" lon="5.89198">
        <ele>1820.6283</ele>
        <time>2013-02-27T12:04:15Z</time>
      </trkpt>
      <trkpt lat="45.35532" lon="5.89215">
        <ele>1822.8245</ele>
        <time>2013-02-27T12:04:42Z</time>
      </trkpt>
      <trkpt lat="45.35548" lon="5.89229">
        <ele>1823.7263</ele>
        <time>2013-02-27T12:04:51Z</time>
      </trkpt>
      <trkpt lat="45.35563" lon="5.89243">
        <ele>1825.6179</ele>
        <time>2013-02-27T12:05:17Z</time>
      </trkpt>
      <trkpt lat="45.35579" lon="5.89258">
        <ele>1827.8501</ele>
        <time>2013-02-27T12:05:24Z</time>
      </trkpt>
      <trkpt lat="45.35596" lon="5.89274">
        <ele>1829.6177</ele>
        <time>2013-02-27T12:05:55Z</time>
      </trkpt>
      <trkpt lat="45.35612" lon="5.89289">
        <ele>1831.3346</ele>
        <time>2013-02-27T12:06:02Z</time>
      </trkpt>
      <trkpt lat="45.35629" lon="5.89305">
        <ele>1832.3865</ele>
        <time>2013-02-27T12:06:31Z</time>
      </trkpt>
      <trkpt lat="45.35644" lon="5.8932">
        <ele>1833.2592</ele>
        <time>2013-02-27T12:06:38Z</time>
      </trkpt>
      <trkpt lat="45.3566" lon="5.89338">
        <ele>1834.2993</ele>
        <time>2013-02-27T12:07:08Z</time>
      </trkpt>
      <trkpt lat="45.35674" lon="5.89358">
        <ele>1836.3583</ele>
        <time>2013-02-27T12:07:13Z</time>
      </trkpt>
      <trkpt lat="45.35686" lon="5.8938">
        <ele>1838.6495</ele>
        <time>2013-02-27T12:07:48Z</time>
      </trkpt>
      <trkpt lat="45.35698" lon="5.89402">
        <ele>1843.3522</ele>
        <time>2013-02-27T12:07:55Z</time>
      </trkpt>
      <trkpt lat="45.35709" lon="5.89424">
        <ele>1846.2726</ele>
        <time>2013-02-27T12:08:33Z</time>
      </trkpt>
      <trkpt lat="45.3572" lon="5.89449">
        <ele>1847.6654</ele>
        <time>2013-02-27T12:08:38Z</time>
      </trkpt>
      <trkpt lat="45.3573" lon="5.89473">
        <ele>1852.604</ele>
        <time>2013-02-27T12:09:22Z</time>
      </trkpt>
      <trkpt lat="45.35738" lon="5.89497">
        <ele>1855.9518</ele>
        <time>2013-02-27T12:09:33Z</time>
      </trkpt>
      <trkpt lat="45.35751" lon="5.89526">
        <ele>1859.0364</ele>
        <time>2013-02-27T12:10:26Z</time>
      </trkpt>
      <trkpt lat="45.35761" lon="5.89547">
        <ele>1862.8307</ele>
        <time>2013-02-27T12:10:40Z</time>
      </trkpt>
      <trkpt lat="45.35774" lon="5.89567">
        <ele>1865.5448</ele>
        <time>2013-02-27T12:11:09Z</time>
      </trkpt>
      <trkpt lat="45.35787" lon="5.89585">
        <ele>1866.7467</ele>
        <time>2013-02-27T12:11:20Z</time>
      </trkpt>
      <trkpt lat="45.35797" lon="5.8961">
        <ele>1870.0674</ele>
        <time>2013-02-27T12:11:56Z</time>
      </trkpt>
      <trkpt lat="45.35805" lon="5.89633">
        <ele>1871.164</ele>
        <time>2013-02-27T12:12:08Z</time>
      </trkpt>
      <trkpt lat="45.35814" lon="5.89659">
        <ele>1874.0736</ele>
        <time>2013-02-27T12:12:38Z</time>
      </trkpt>
      <trkpt lat="45.35823" lon="5.89681">
        <ele>1878.1641</ele>
        <time>2013-02-27T12:12:50Z</time>
      </trkpt>
      <trkpt lat="45.35808" lon="5.89713">
        <ele>1880.578</ele>
        <time>2013-02-27T12:23:59Z</time>
      </trkpt>
      <trkpt lat="45.35812" lon="5.8974">
        <ele>1878.7864</ele>
        <time>2013-02-27T12:24:12Z</time>
      </trkpt>
      <trkpt lat="45.35813" lon="5.89768">
        <ele>1869.3528</ele>
        <time>2013-02-27T12:24:30Z</time>
      </trkpt>
      <trkpt lat="45.35821" lon="5.89791">
        <ele>1859.6367</ele>
        <time>2013-02-27T12:24:44Z</time>
      </trkpt>
      <trkpt lat="45.35824" lon="5.89816">
        <ele>1841.3</ele>
        <time>2013-02-27T12:25:18Z</time>
      </trkpt>
      <trkpt lat="45.35818" lon="5.89841">
        <ele>1832.6559</ele>
        <time>2013-02-27T12:25:25Z</time>
      </trkpt>
      <trkpt lat="45.35804" lon="5.89863">
        <ele>1829.8188</ele>
        <time>2013-02-27T12:25:28Z</time>
      </trkpt>
      <trkpt lat="45.35796" lon="5.89893">
        <ele>1825.3324</ele>
        <time>2013-02-27T12:25:32Z</time>
      </trkpt>
      <trkpt lat="45.35814" lon="5.89906">
        <ele>1811.0261</ele>
        <time>2013-02-27T12:25:42Z</time>
      </trkpt>
      <trkpt lat="45.35833" lon="5.89897">
        <ele>1805.263</ele>
        <time>2013-02-27T12:25:48Z</time>
      </trkpt>
      <trkpt lat="45.35837" lon="5.89923">
        <ele>1779.7512</ele>
        <time>2013-02-27T12:28:20Z</time>
      </trkpt>
      <trkpt lat="45.35823" lon="5.89942">
        <ele>1776.9725</ele>
        <time>2013-02-27T12:28:24Z</time>
      </trkpt>
      <trkpt lat="45.35829" lon="5.89967">
        <ele>1766.5347</ele>
        <time>2013-02-27T12:28:49Z</time>
      </trkpt>
      <trkpt lat="45.3583" lon="5.89994">
        <ele>1753.3063</ele>
        <time>2013-02-27T12:29:02Z</time>
      </trkpt>
      <trkpt lat="45.35821" lon="5.90016">
        <ele>1741.3456</ele>
        <time>2013-02-27T12:29:21Z</time>
      </trkpt>
      <trkpt lat="45.35827" lon="5.90043">
        <ele>1716.3325</ele>
        <time>2013-02-27T12:29:48Z</time>
      </trkpt>
      <trkpt lat="45.35841" lon="5.90064">
        <ele>1696.5387</ele>
        <time>2013-02-27T12:30:50Z</time>
      </trkpt>
      <trkpt lat="45.35839" lon="5.90093">
        <ele>1688.4691</ele>
        <time>2013-02-27T12:31:01Z</time>
      </trkpt>
      <trkpt lat="45.3583" lon="5.90118">
        <ele>1680.5974</ele>
        <time>2013-02-27T12:31:09Z</time>
      </trkpt>
      <trkpt lat="45.35812" lon="5.90132">
        <ele>1659.7567</ele>
        <time>2013-02-27T12:32:36Z</time>
      </trkpt>
      <trkpt lat="45.35798" lon="5.90149">
        <ele>1652.6052</ele>
        <time>2013-02-27T12:32:42Z</time>
      </trkpt>
      <trkpt lat="45.35788" lon="5.9017">
        <ele>1640.2067</ele>
        <time>2013-02-27T12:32:52Z</time>
      </trkpt>
      <trkpt lat="45.3578" lon="5.90193">
        <ele>1628.6735</ele>
        <time>2013-02-27T12:33:00Z</time>
      </trkpt>
      <trkpt lat="45.35761" lon="5.9019">
        <ele>1615.2511</ele>
        <time>2013-02-27T12:33:17Z</time>
      </trkpt>
      <trkpt lat="45.35743" lon="5.90197">
        <ele>1601.9666</ele>
        <time>2013-02-27T12:36:15Z</time>
      </trkpt>
      <trkpt lat="45.35737" lon="5.90224">
        <ele>1594.4658</ele>
        <time>2013-02-27T12:36:31Z</time>
      </trkpt>
      <trkpt lat="45.35727" lon="5.90246">
        <ele>1583.9999</ele>
        <time>2013-02-27T12:36:41Z</time>
      </trkpt>
      <trkpt lat="45.35719" lon="5.90269">
        <ele>1575.6295</ele>
        <time>2013-02-27T12:36:55Z</time>
      </trkpt>
      <trkpt lat="45.35708" lon="5.90292">
        <ele>1564.9435</ele>
        <time>2013-02-27T12:37:17Z</time>
      </trkpt>
      <trkpt lat="45.35711" lon="5.90317">
        <ele>1549.1573</ele>
        <time>2013-02-27T12:37:30Z</time>
      </trkpt>
      <trkpt lat="45.35704" lon="5.90342">
        <ele>1530.3889</ele>
        <time>2013-02-27T12:37:58Z</time>
      </trkpt>
      <trkpt lat="45.35689" lon="5.90358">
        <ele>1520.119</ele>
        <time>2013-02-27T12:38:08Z</time>
      </trkpt>
      <trkpt lat="45.35677" lon="5.9038">
        <ele>1510.3685</ele>
        <time>2013-02-27T12:38:22Z</time>
      </trkpt>
      <trkpt lat="45.35667" lon="5.90403">
        <ele>1502.5037</ele>
        <time>2013-02-27T12:38:33Z</time>
      </trkpt>
      <trkpt lat="45.35651" lon="5.90421">
        <ele>1491.6675</ele>
        <time>2013-02-27T12:38:42Z</time>
      </trkpt>
      <trkpt lat="45.35644" lon="5.90447">
        <ele>1483.797</ele>
        <time>2013-02-27T12:38:59Z</time>
      </trkpt>
      <trkpt lat="45.35643" lon="5.90491">
        <ele>1460.5374</ele>
        <time>2013-02-27T12:43:51Z</time>
      </trkpt>
      <trkpt lat="45.35652" lon="5.90517">
        <ele>1453.1785</ele>
        <time>2013-02-27T12:43:57Z</time>
      </trkpt>
      <trkpt lat="45.3566" lon="5.90543">
        <ele>1449.5876</ele>
        <time>2013-02-27T12:44:02Z</time>
      </trkpt>
      <trkpt lat="45.35669" lon="5.9057">
        <ele>1446.0413</ele>
        <time>2013-02-27T12:44:07Z</time>
      </trkpt>
      <trkpt lat="45.35685" lon="5.90583">
        <ele>1444.0658</ele>
        <time>2013-02-27T12:44:10Z</time>
      </trkpt>
      <trkpt lat="45.35701" lon="5.90595">
        <ele>1441.4427</ele>
        <time>2013-02-27T12:44:14Z</time>
      </trkpt>
      <trkpt lat="45.35711" lon="5.90622">
        <ele>1436.4637</ele>
        <time>2013-02-27T12:44:20Z</time>
      </trkpt>
      <trkpt lat="45.35722" lon="5.90649">
        <ele>1430.428</ele>
        <time>2013-02-27T12:44:30Z</time>
      </trkpt>
      <trkpt lat="45.35721" lon="5.90676">
        <ele>1426.2151</ele>
        <time>2013-02-27T12:44:34Z</time>
      </trkpt>
      <trkpt lat="45.35735" lon="5.90694">
        <ele>1418.8271</ele>
        <time>2013-02-27T12:45:13Z</time>
      </trkpt>
      <trkpt lat="45.35749" lon="5.90713">
        <ele>1416.5598</ele>
        <time>2013-02-27T12:45:17Z</time>
      </trkpt>
      <trkpt lat="45.35767" lon="5.90734">
        <ele>1413.2224</ele>
        <time>2013-02-27T12:45:22Z</time>
      </trkpt>
      <trkpt lat="45.35781" lon="5.90759">
        <ele>1407.45</ele>
        <time>2013-02-27T12:45:28Z</time>
      </trkpt>
      <trkpt lat="45.35796" lon="5.90778">
        <ele>1403.2192</ele>
        <time>2013-02-27T12:45:32Z</time>
      </trkpt>
      <trkpt lat="45.35804" lon="5.90803">
        <ele>1396.0813</ele>
        <time>2013-02-27T12:45:43Z</time>
      </trkpt>
      <trkpt lat="45.35808" lon="5.90829">
        <ele>1387.771</ele>
        <time>2013-02-27T12:46:02Z</time>
      </trkpt>
      <trkpt lat="45.35807" lon="5.90857">
        <ele>1384.1556</ele>
        <time>2013-02-27T12:46:07Z</time>
      </trkpt>
      <trkpt lat="45.35807" lon="5.90885">
        <ele>1379.514</ele>
        <time>2013-02-27T12:46:12Z</time>
      </trkpt>
      <trkpt lat="45.35794" lon="5.90904">
        <ele>1373.0438</ele>
        <time>2013-02-27T12:46:17Z</time>
      </trkpt>
      <trkpt lat="45.35773" lon="5.90891">
        <ele>1368.471</ele>
        <time>2013-02-27T12:46:21Z</time>
      </trkpt>
      <trkpt lat="45.35754" lon="5.90879">
        <ele>1365.0905</ele>
        <time>2013-02-27T12:46:25Z</time>
      </trkpt>
      <trkpt lat="45.35735" lon="5.90878">
        <ele>1359.2491</ele>
        <time>2013-02-27T12:46:31Z</time>
      </trkpt>
      <trkpt lat="45.35715" lon="5.90875">
        <ele>1353.7358</ele>
        <time>2013-02-27T12:46:35Z</time>
      </trkpt>
      <trkpt lat="45.35696" lon="5.90889">
        <ele>1349.3401</ele>
        <time>2013-02-27T12:46:38Z</time>
      </trkpt>
      <trkpt lat="45.35687" lon="5.90917">
        <ele>1329.2375</ele>
        <time>2013-02-27T12:48:26Z</time>
      </trkpt>
      <trkpt lat="45.35688" lon="5.90948">
        <ele>1322.4424</ele>
        <time>2013-02-27T12:48:29Z</time>
      </trkpt>
      <trkpt lat="45.35692" lon="5.90982">
        <ele>1318.1866</ele>
        <time>2013-02-27T12:48:32Z</time>
      </trkpt>
      <trkpt lat="45.35692" lon="5.91009">
        <ele>1315.4425</ele>
        <time>2013-02-27T12:48:34Z</time>
      </trkpt>
      <trkpt lat="45.35692" lon="5.91038">
        <ele>1312.2551</ele>
        <time>2013-02-27T12:48:36Z</time>
      </trkpt>
      <trkpt lat="45.35697" lon="5.91073">
        <ele>1306.2092</ele>
        <time>2013-02-27T12:48:39Z</time>
      </trkpt>
      <trkpt lat="45.35706" lon="5.91105">
        <ele>1298.4758</ele>
        <time>2013-02-27T12:48:42Z</time>
      </trkpt>
      <trkpt lat="45.35717" lon="5.91134">
        <ele>1289.7836</ele>
        <time>2013-02-27T12:48:45Z</time>
      </trkpt>
      <trkpt lat="45.35726" lon="5.91166">
        <ele>1279.9117</ele>
        <time>2013-02-27T12:48:48Z</time>
      </trkpt>
      <trkpt lat="45.35734" lon="5.91189">
        <ele>1272.8942</ele>
        <time>2013-02-27T12:48:50Z</time>
      </trkpt>
      <trkpt lat="45.35737" lon="5.91225">
        <ele>1262.2506</ele>
        <time>2013-02-27T12:48:53Z</time>
      </trkpt>
      <trkpt lat="45.35738" lon="5.9125">
        <ele>1255.5785</ele>
        <time>2013-02-27T12:48:55Z</time>
      </trkpt>
      <trkpt lat="45.3573" lon="5.91276">
        <ele>1248.7255</ele>
        <time>2013-02-27T12:48:57Z</time>
      </trkpt>
      <trkpt lat="45.35728" lon="5.91304">
        <ele>1242.1393</ele>
        <time>2013-02-27T12:48:59Z</time>
      </trkpt>
      <trkpt lat="45.35723" lon="5.91345">
        <ele>1232.4338</ele>
        <time>2013-02-27T12:49:02Z</time>
      </trkpt>
      <trkpt lat="45.3572" lon="5.91379">
        <ele>1225.9377</ele>
        <time>2013-02-27T12:49:04Z</time>
      </trkpt>
      <trkpt lat="45.35713" lon="5.91411">
        <ele>1218.9525</ele>
        <time>2013-02-27T12:49:06Z</time>
      </trkpt>
      <trkpt lat="45.35708" lon="5.91441">
        <ele>1211.892</ele>
        <time>2013-02-27T12:49:08Z</time>
      </trkpt>
      <trkpt lat="45.35704" lon="5.91469">
        <ele>1204.8206</ele>
        <time>2013-02-27T12:49:10Z</time>
      </trkpt>
      <trkpt lat="45.35697" lon="5.91495">
        <ele>1193</ele>
        <time>2013-02-27T12:50:10Z</time>
      </trkpt>
    </trkseg>
  </trk>
</gpx>